sensor_id;sensor_type;location;lat;lon;timestamp;temperature;humidity
10278;DHT22;5184;51.376;7.148;2022-09-09T00:00:00;14.40;99.90
10278;DHT22;5184;51.376;7.148;2022-09-09T00:02:27;14.40;99.90
10278;DHT22;5184;51.376;7.148;2022-09-09T00:05:04;14.40;99.90
10278;DHT22;5184;51.376;7.148;2022-09-09T00:07:38;14.50;99.90
10278;DHT22;5184;51.376;7.148;2022-09-09T00:10:13;14.40;99.90
10278;DHT22;5184;51.376;7.148;2022-09-09T00:12:38;14.40;99.90
10278;DHT22;5184;51.376;7.148;2022-09-09T00:15:05;14.50;99.90
10278;DHT22;5184;51.376;7.148;2022-09-09T00:17:37;14.50;99.90
10278;DHT22;5184;51.376;7.148;2022-09-09T00:20:09;14.50;99.90
10278;DHT22;5184;51.376;7.148;2022-09-09T00:22:29;14.40;99.90
10278;DHT22;5184;51.376;7.148;2022-09-09T00:24:57;14.40;99.90
10278;DHT22;5184;51.376;7.148;2022-09-09T00:30:20;14.40;99.90
10278;DHT22;5184;51.376;7.148;2022-09-09T00:32:46;14.40;99.90
10278;DHT22;5184;51.376;7.148;2022-09-09T00:35:31;14.50;99.90
10278;DHT22;5184;51.376;7.148;2022-09-09T00:40:34;14.40;99.90
10278;DHT22;5184;51.376;7.148;2022-09-09T00:43:07;14.40;99.90
10278;DHT22;5184;51.376;7.148;2022-09-09T00:48:18;14.20;99.90
10278;DHT22;5184;51.376;7.148;2022-09-09T00:50:51;14.30;99.90
10278;DHT22;5184;51.376;7.148;2022-09-09T00:53:42;14.20;99.90
10278;DHT22;5184;51.376;7.148;2022-09-09T00:56:14;14.20;99.90
10278;DHT22;5184;51.376;7.148;2022-09-09T00:58:46;14.10;99.90
10278;DHT22;5184;51.376;7.148;2022-09-09T01:01:10;14.10;99.90
10278;DHT22;5184;51.376;7.148;2022-09-09T01:03:49;14.10;99.90
10278;DHT22;5184;51.376;7.148;2022-09-09T01:06:22;14.10;99.90
10278;DHT22;5184;51.376;7.148;2022-09-09T01:11:41;14.10;99.90
10278;DHT22;5184;51.376;7.148;2022-09-09T01:16:47;14.10;99.90
10278;DHT22;5184;51.376;7.148;2022-09-09T01:19:17;14.00;99.90
10278;DHT22;5184;51.376;7.148;2022-09-09T01:24:38;13.90;99.90
10278;DHT22;5184;51.376;7.148;2022-09-09T01:27:04;13.90;99.90
10278;DHT22;5184;51.376;7.148;2022-09-09T01:29:31;13.90;99.90
10278;DHT22;5184;51.376;7.148;2022-09-09T01:31:59;14.00;99.90
10278;DHT22;5184;51.376;7.148;2022-09-09T01:34:29;14.10;99.90
10278;DHT22;5184;51.376;7.148;2022-09-09T01:36:58;14.00;99.90
10278;DHT22;5184;51.376;7.148;2022-09-09T01:39:23;14.10;99.90
10278;DHT22;5184;51.376;7.148;2022-09-09T01:41:50;14.10;99.90
10278;DHT22;5184;51.376;7.148;2022-09-09T01:44:17;14.10;99.90
10278;DHT22;5184;51.376;7.148;2022-09-09T01:46:43;14.20;99.90
10278;DHT22;5184;51.376;7.148;2022-09-09T01:49:11;14.50;99.90
10278;DHT22;5184;51.376;7.148;2022-09-09T01:51:38;14.20;99.90
10278;DHT22;5184;51.376;7.148;2022-09-09T01:54:05;14.10;99.90
10278;DHT22;5184;51.376;7.148;2022-09-09T01:56:55;14.20;99.90
10278;DHT22;5184;51.376;7.148;2022-09-09T01:59:25;14.20;99.90
10278;DHT22;5184;51.376;7.148;2022-09-09T02:01:55;14.20;99.90
10278;DHT22;5184;51.376;7.148;2022-09-09T02:04:27;14.20;99.90
10278;DHT22;5184;51.376;7.148;2022-09-09T02:06:49;14.20;99.90
10278;DHT22;5184;51.376;7.148;2022-09-09T02:09:16;14.20;99.90
10278;DHT22;5184;51.376;7.148;2022-09-09T02:11:42;14.10;99.90
10278;DHT22;5184;51.376;7.148;2022-09-09T02:14:14;14.10;99.90
10278;DHT22;5184;51.376;7.148;2022-09-09T02:16:42;14.00;99.90
10278;DHT22;5184;51.376;7.148;2022-09-09T02:19:09;14.10;99.90
10278;DHT22;5184;51.376;7.148;2022-09-09T02:21:34;14.10;99.90
10278;DHT22;5184;51.376;7.148;2022-09-09T02:24:02;14.10;99.90
10278;DHT22;5184;51.376;7.148;2022-09-09T02:26:28;14.00;99.90
10278;DHT22;5184;51.376;7.148;2022-09-09T02:28:55;14.10;99.90
10278;DHT22;5184;51.376;7.148;2022-09-09T02:31:22;14.30;99.90
10278;DHT22;5184;51.376;7.148;2022-09-09T02:33:51;14.20;99.90
10278;DHT22;5184;51.376;7.148;2022-09-09T02:36:15;14.20;99.90
10278;DHT22;5184;51.376;7.148;2022-09-09T02:38:46;14.20;99.90
10278;DHT22;5184;51.376;7.148;2022-09-09T02:41:09;14.30;99.90
10278;DHT22;5184;51.376;7.148;2022-09-09T02:43:35;14.30;99.90
10278;DHT22;5184;51.376;7.148;2022-09-09T02:46:04;14.40;99.90
10278;DHT22;5184;51.376;7.148;2022-09-09T02:48:33;14.40;99.90
10278;DHT22;5184;51.376;7.148;2022-09-09T02:51:07;14.40;99.90
10278;DHT22;5184;51.376;7.148;2022-09-09T02:53:37;14.40;99.90
10278;DHT22;5184;51.376;7.148;2022-09-09T02:56:03;14.40;99.90
10278;DHT22;5184;51.376;7.148;2022-09-09T02:58:26;14.40;99.90
10278;DHT22;5184;51.376;7.148;2022-09-09T03:00:53;14.40;99.90
10278;DHT22;5184;51.376;7.148;2022-09-09T03:03:20;14.40;99.90
10278;DHT22;5184;51.376;7.148;2022-09-09T03:05:46;14.40;99.90
10278;DHT22;5184;51.376;7.148;2022-09-09T03:08:13;14.40;99.90
10278;DHT22;5184;51.376;7.148;2022-09-09T03:10:39;14.40;99.90
10278;DHT22;5184;51.376;7.148;2022-09-09T03:13:07;14.40;99.90
10278;DHT22;5184;51.376;7.148;2022-09-09T03:15:34;14.40;99.90
10278;DHT22;5184;51.376;7.148;2022-09-09T03:18:01;14.40;99.90
10278;DHT22;5184;51.376;7.148;2022-09-09T03:20:28;14.40;99.90
10278;DHT22;5184;51.376;7.148;2022-09-09T03:22:54;14.40;99.90
10278;DHT22;5184;51.376;7.148;2022-09-09T03:25:21;14.40;99.90
10278;DHT22;5184;51.376;7.148;2022-09-09T03:27:48;14.40;99.90
10278;DHT22;5184;51.376;7.148;2022-09-09T03:30:14;14.30;99.90
10278;DHT22;5184;51.376;7.148;2022-09-09T03:32:41;14.30;99.90
10278;DHT22;5184;51.376;7.148;2022-09-09T03:35:08;14.30;99.90
10278;DHT22;5184;51.376;7.148;2022-09-09T03:37:36;14.30;99.90
10278;DHT22;5184;51.376;7.148;2022-09-09T03:40:03;14.30;99.90
10278;DHT22;5184;51.376;7.148;2022-09-09T03:42:30;14.30;99.90
10278;DHT22;5184;51.376;7.148;2022-09-09T03:44:57;14.30;99.90
10278;DHT22;5184;51.376;7.148;2022-09-09T03:47:25;14.30;99.90
10278;DHT22;5184;51.376;7.148;2022-09-09T03:49:51;14.30;99.90
10278;DHT22;5184;51.376;7.148;2022-09-09T03:52:18;14.40;99.90
10278;DHT22;5184;51.376;7.148;2022-09-09T03:54:45;14.30;99.90
10278;DHT22;5184;51.376;7.148;2022-09-09T03:57:11;14.30;99.90
10278;DHT22;5184;51.376;7.148;2022-09-09T03:59:38;14.30;99.90
10278;DHT22;5184;51.376;7.148;2022-09-09T04:02:05;14.30;99.90
10278;DHT22;5184;51.376;7.148;2022-09-09T04:04:32;14.30;99.90
10278;DHT22;5184;51.376;7.148;2022-09-09T04:06:58;14.30;99.90
10278;DHT22;5184;51.376;7.148;2022-09-09T04:09:25;14.30;99.90
10278;DHT22;5184;51.376;7.148;2022-09-09T04:11:51;14.40;99.90
10278;DHT22;5184;51.376;7.148;2022-09-09T04:14:18;14.40;99.90
10278;DHT22;5184;51.376;7.148;2022-09-09T04:16:45;14.40;99.90
10278;DHT22;5184;51.376;7.148;2022-09-09T04:19:12;14.40;99.90
10278;DHT22;5184;51.376;7.148;2022-09-09T04:21:38;14.40;99.90
10278;DHT22;5184;51.376;7.148;2022-09-09T04:24:05;14.40;99.90
10278;DHT22;5184;51.376;7.148;2022-09-09T04:26:32;14.40;99.90
10278;DHT22;5184;51.376;7.148;2022-09-09T04:28:59;14.40;99.90
10278;DHT22;5184;51.376;7.148;2022-09-09T04:31:26;14.30;99.90
10278;DHT22;5184;51.376;7.148;2022-09-09T04:33:52;14.40;99.90
10278;DHT22;5184;51.376;7.148;2022-09-09T04:36:19;14.30;99.90
10278;DHT22;5184;51.376;7.148;2022-09-09T04:38:46;14.20;99.90
10278;DHT22;5184;51.376;7.148;2022-09-09T04:41:13;14.10;99.90
10278;DHT22;5184;51.376;7.148;2022-09-09T04:43:40;14.10;99.90
10278;DHT22;5184;51.376;7.148;2022-09-09T04:46:07;14.20;99.90
10278;DHT22;5184;51.376;7.148;2022-09-09T04:48:34;14.20;99.90
10278;DHT22;5184;51.376;7.148;2022-09-09T04:51:02;14.20;99.90
10278;DHT22;5184;51.376;7.148;2022-09-09T04:53:28;14.20;99.90
10278;DHT22;5184;51.376;7.148;2022-09-09T04:56:11;14.20;99.90
10278;DHT22;5184;51.376;7.148;2022-09-09T04:58:38;13.80;99.90
10278;DHT22;5184;51.376;7.148;2022-09-09T05:01:07;14.30;99.90
10278;DHT22;5184;51.376;7.148;2022-09-09T05:03:34;14.30;99.90
10278;DHT22;5184;51.376;7.148;2022-09-09T05:06:04;14.30;99.90
10278;DHT22;5184;51.376;7.148;2022-09-09T05:08:30;14.40;99.90
10278;DHT22;5184;51.376;7.148;2022-09-09T05:10:57;14.40;99.90
10278;DHT22;5184;51.376;7.148;2022-09-09T05:13:24;14.40;99.90
10278;DHT22;5184;51.376;7.148;2022-09-09T05:15:52;14.40;99.90
10278;DHT22;5184;51.376;7.148;2022-09-09T05:18:18;14.40;99.90
10278;DHT22;5184;51.376;7.148;2022-09-09T05:20:45;14.40;99.90
10278;DHT22;5184;51.376;7.148;2022-09-09T05:23:12;14.40;99.90
10278;DHT22;5184;51.376;7.148;2022-09-09T05:25:38;14.40;99.90
10278;DHT22;5184;51.376;7.148;2022-09-09T05:28:06;14.40;99.90
10278;DHT22;5184;51.376;7.148;2022-09-09T05:30:33;14.40;99.90
10278;DHT22;5184;51.376;7.148;2022-09-09T05:33:00;14.40;99.90
10278;DHT22;5184;51.376;7.148;2022-09-09T05:35:26;14.40;99.90
10278;DHT22;5184;51.376;7.148;2022-09-09T05:37:53;14.40;99.90
10278;DHT22;5184;51.376;7.148;2022-09-09T05:40:19;14.50;99.90
10278;DHT22;5184;51.376;7.148;2022-09-09T05:42:46;14.50;99.90
10278;DHT22;5184;51.376;7.148;2022-09-09T05:45:13;14.60;99.90
10278;DHT22;5184;51.376;7.148;2022-09-09T05:47:40;14.60;99.90
10278;DHT22;5184;51.376;7.148;2022-09-09T05:50:07;14.60;99.90
10278;DHT22;5184;51.376;7.148;2022-09-09T05:52:33;14.70;99.90
10278;DHT22;5184;51.376;7.148;2022-09-09T05:55:00;14.70;99.90
10278;DHT22;5184;51.376;7.148;2022-09-09T05:57:27;14.70;99.90
10278;DHT22;5184;51.376;7.148;2022-09-09T05:59:53;14.70;99.90
10278;DHT22;5184;51.376;7.148;2022-09-09T06:02:20;14.70;99.90
10278;DHT22;5184;51.376;7.148;2022-09-09T06:04:47;14.80;99.90
10278;DHT22;5184;51.376;7.148;2022-09-09T06:07:14;14.80;99.90
10278;DHT22;5184;51.376;7.148;2022-09-09T06:09:40;14.80;99.90
10278;DHT22;5184;51.376;7.148;2022-09-09T06:12:07;14.80;99.90
10278;DHT22;5184;51.376;7.148;2022-09-09T06:14:34;14.90;99.90
10278;DHT22;5184;51.376;7.148;2022-09-09T06:17:00;14.90;99.90
10278;DHT22;5184;51.376;7.148;2022-09-09T06:19:27;15.00;99.90
10278;DHT22;5184;51.376;7.148;2022-09-09T06:21:53;15.00;99.90
10278;DHT22;5184;51.376;7.148;2022-09-09T06:24:20;15.10;99.90
10278;DHT22;5184;51.376;7.148;2022-09-09T06:26:47;15.20;99.90
10278;DHT22;5184;51.376;7.148;2022-09-09T06:29:15;15.20;99.90
10278;DHT22;5184;51.376;7.148;2022-09-09T06:31:41;15.20;99.90
10278;DHT22;5184;51.376;7.148;2022-09-09T06:34:08;15.30;99.90
10278;DHT22;5184;51.376;7.148;2022-09-09T06:36:35;15.30;99.90
10278;DHT22;5184;51.376;7.148;2022-09-09T06:39:01;15.40;99.90
10278;DHT22;5184;51.376;7.148;2022-09-09T06:41:28;15.40;99.90
10278;DHT22;5184;51.376;7.148;2022-09-09T06:43:55;15.50;89.80
10278;DHT22;5184;51.376;7.148;2022-09-09T06:46:23;15.50;14.00
10278;DHT22;5184;51.376;7.148;2022-09-09T06:48:50;15.60;32.40
10278;DHT22;5184;51.376;7.148;2022-09-09T06:51:17;15.60;33.50
10278;DHT22;5184;51.376;7.148;2022-09-09T06:53:44;15.60;4.70
10278;DHT22;5184;51.376;7.148;2022-09-09T06:56:26;15.60;1.00
10278;DHT22;5184;51.376;7.148;2022-09-09T06:58:53;15.60;1.00
10278;DHT22;5184;51.376;7.148;2022-09-09T07:01:21;15.60;1.00
10278;DHT22;5184;51.376;7.148;2022-09-09T07:03:48;15.70;99.90
10278;DHT22;5184;51.376;7.148;2022-09-09T07:06:15;15.80;99.90
10278;DHT22;5184;51.376;7.148;2022-09-09T07:08:41;15.80;1.00
10278;DHT22;5184;51.376;7.148;2022-09-09T07:11:08;15.90;99.90
10278;DHT22;5184;51.376;7.148;2022-09-09T07:13:36;15.90;99.90
10278;DHT22;5184;51.376;7.148;2022-09-09T07:16:05;15.90;99.90
10278;DHT22;5184;51.376;7.148;2022-09-09T07:18:31;15.90;99.90
10278;DHT22;5184;51.376;7.148;2022-09-09T07:20:58;15.90;99.90
10278;DHT22;5184;51.376;7.148;2022-09-09T07:23:25;15.90;99.90
10278;DHT22;5184;51.376;7.148;2022-09-09T07:25:51;15.90;99.90
10278;DHT22;5184;51.376;7.148;2022-09-09T07:28:18;15.90;1.00
10278;DHT22;5184;51.376;7.148;2022-09-09T07:30:53;15.90;99.90
10278;DHT22;5184;51.376;7.148;2022-09-09T07:33:19;15.90;99.90
10278;DHT22;5184;51.376;7.148;2022-09-09T07:35:45;16.00;1.00
10278;DHT22;5184;51.376;7.148;2022-09-09T07:38:12;16.10;1.00
10278;DHT22;5184;51.376;7.148;2022-09-09T07:40:38;16.10;99.90
10278;DHT22;5184;51.376;7.148;2022-09-09T07:43:06;16.10;1.00
10278;DHT22;5184;51.376;7.148;2022-09-09T07:45:33;16.20;1.00
10278;DHT22;5184;51.376;7.148;2022-09-09T07:48:01;16.20;1.00
10278;DHT22;5184;51.376;7.148;2022-09-09T07:50:27;16.20;1.00
10278;DHT22;5184;51.376;7.148;2022-09-09T07:52:54;16.20;98.50
10278;DHT22;5184;51.376;7.148;2022-09-09T07:55:21;16.10;1.00
10278;DHT22;5184;51.376;7.148;2022-09-09T07:57:48;16.10;1.00
10278;DHT22;5184;51.376;7.148;2022-09-09T08:00:14;16.10;99.90
10278;DHT22;5184;51.376;7.148;2022-09-09T08:02:41;16.10;48.30
10278;DHT22;5184;51.376;7.148;2022-09-09T08:05:08;16.30;34.10
10278;DHT22;5184;51.376;7.148;2022-09-09T08:07:36;16.30;1.00
10278;DHT22;5184;51.376;7.148;2022-09-09T08:10:03;16.30;99.90
10278;DHT22;5184;51.376;7.148;2022-09-09T08:12:30;16.30;99.90
10278;DHT22;5184;51.376;7.148;2022-09-09T08:14:57;16.50;1.00
10278;DHT22;5184;51.376;7.148;2022-09-09T08:17:24;16.50;1.00
10278;DHT22;5184;51.376;7.148;2022-09-09T08:19:51;16.80;1.00
10278;DHT22;5184;51.376;7.148;2022-09-09T08:22:19;16.90;1.00
10278;DHT22;5184;51.376;7.148;2022-09-09T08:24:45;16.90;1.00
10278;DHT22;5184;51.376;7.148;2022-09-09T08:27:12;17.10;1.00
10278;DHT22;5184;51.376;7.148;2022-09-09T08:29:38;17.20;99.90
10278;DHT22;5184;51.376;7.148;2022-09-09T08:32:05;17.30;1.00
10278;DHT22;5184;51.376;7.148;2022-09-09T08:34:32;17.40;1.00
10278;DHT22;5184;51.376;7.148;2022-09-09T08:36:58;17.40;1.00
10278;DHT22;5184;51.376;7.148;2022-09-09T08:39:25;17.40;99.90
10278;DHT22;5184;51.376;7.148;2022-09-09T08:41:57;17.50;1.00
10278;DHT22;5184;51.376;7.148;2022-09-09T08:44:49;17.70;99.90
10278;DHT22;5184;51.376;7.148;2022-09-09T08:47:28;17.60;99.90
10278;DHT22;5184;51.376;7.148;2022-09-09T08:50:05;17.70;99.90
10278;DHT22;5184;51.376;7.148;2022-09-09T08:52:30;17.70;1.00
10278;DHT22;5184;51.376;7.148;2022-09-09T08:54:56;17.80;99.90
10278;DHT22;5184;51.376;7.148;2022-09-09T08:57:23;18.00;1.00
10278;DHT22;5184;51.376;7.148;2022-09-09T08:59:50;18.10;99.90
10278;DHT22;5184;51.376;7.148;2022-09-09T09:02:47;18.10;99.90
10278;DHT22;5184;51.376;7.148;2022-09-09T09:05:19;18.10;99.90
10278;DHT22;5184;51.376;7.148;2022-09-09T09:08:03;17.90;1.00
10278;DHT22;5184;51.376;7.148;2022-09-09T09:10:45;17.70;99.90
10278;DHT22;5184;51.376;7.148;2022-09-09T09:13:14;17.60;99.90
10278;DHT22;5184;51.376;7.148;2022-09-09T09:15:40;17.50;1.00
10278;DHT22;5184;51.376;7.148;2022-09-09T09:18:07;17.40;1.00
10278;DHT22;5184;51.376;7.148;2022-09-09T09:23:15;17.50;1.00
10278;DHT22;5184;51.376;7.148;2022-09-09T09:25:39;17.70;1.00
10278;DHT22;5184;51.376;7.148;2022-09-09T09:28:17;17.90;1.00
10278;DHT22;5184;51.376;7.148;2022-09-09T09:30:48;18.10;1.00
10278;DHT22;5184;51.376;7.148;2022-09-09T09:33:17;18.20;99.90
10278;DHT22;5184;51.376;7.148;2022-09-09T09:35:41;18.20;99.90
10278;DHT22;5184;51.376;7.148;2022-09-09T09:38:26;18.30;99.90
10278;DHT22;5184;51.376;7.148;2022-09-09T09:40:54;18.30;99.90
10278;DHT22;5184;51.376;7.148;2022-09-09T09:43:24;18.30;99.90
10278;DHT22;5184;51.376;7.148;2022-09-09T09:45:48;18.30;38.20
10278;DHT22;5184;51.376;7.148;2022-09-09T09:48:15;18.30;99.90
10278;DHT22;5184;51.376;7.148;2022-09-09T09:50:52;18.40;99.90
10278;DHT22;5184;51.376;7.148;2022-09-09T09:53:34;18.40;99.90
10278;DHT22;5184;51.376;7.148;2022-09-09T09:56:09;18.60;99.90
10278;DHT22;5184;51.376;7.148;2022-09-09T09:58:48;18.70;1.00
10278;DHT22;5184;51.376;7.148;2022-09-09T10:01:20;18.80;99.90
10278;DHT22;5184;51.376;7.148;2022-09-09T10:03:50;18.60;1.00
10278;DHT22;5184;51.376;7.148;2022-09-09T10:06:12;18.50;1.00
10278;DHT22;5184;51.376;7.148;2022-09-09T10:08:47;18.50;1.00
10278;DHT22;5184;51.376;7.148;2022-09-09T10:11:22;18.30;1.00
10278;DHT22;5184;51.376;7.148;2022-09-09T10:14:05;18.30;1.00
10278;DHT22;5184;51.376;7.148;2022-09-09T10:16:38;18.40;1.00
10278;DHT22;5184;51.376;7.148;2022-09-09T10:19:13;18.40;1.00
10278;DHT22;5184;51.376;7.148;2022-09-09T10:21:51;18.60;99.90
10278;DHT22;5184;51.376;7.148;2022-09-09T10:26:59;18.70;99.90
10278;DHT22;5184;51.376;7.148;2022-09-09T10:29:30;18.80;99.90
10278;DHT22;5184;51.376;7.148;2022-09-09T10:32:00;18.90;99.90
10278;DHT22;5184;51.376;7.148;2022-09-09T10:35:35;19.00;99.90
10278;DHT22;5184;51.376;7.148;2022-09-09T10:37:17;19.10;70.80
10278;DHT22;5184;51.376;7.148;2022-09-09T10:39:38;19.20;99.90
10278;DHT22;5184;51.376;7.148;2022-09-09T10:42:12;19.50;99.90
10278;DHT22;5184;51.376;7.148;2022-09-09T10:44:50;19.50;99.90
10278;DHT22;5184;51.376;7.148;2022-09-09T10:47:44;19.70;18.30
10278;DHT22;5184;51.376;7.148;2022-09-09T10:50:29;19.90;1.00
10278;DHT22;5184;51.376;7.148;2022-09-09T10:53:01;19.90;1.00
10278;DHT22;5184;51.376;7.148;2022-09-09T10:55:26;19.70;56.00
10278;DHT22;5184;51.376;7.148;2022-09-09T10:57:52;19.60;1.00
10278;DHT22;5184;51.376;7.148;2022-09-09T11:00:20;19.60;99.90
10278;DHT22;5184;51.376;7.148;2022-09-09T11:02:48;19.50;99.90
10278;DHT22;5184;51.376;7.148;2022-09-09T11:05:20;19.60;48.80
10278;DHT22;5184;51.376;7.148;2022-09-09T11:07:48;19.60;1.00
10278;DHT22;5184;51.376;7.148;2022-09-09T11:12:52;19.80;93.80
10278;DHT22;5184;51.376;7.148;2022-09-09T11:15:22;19.90;99.90
10278;DHT22;5184;51.376;7.148;2022-09-09T11:17:49;20.00;20.10
10278;DHT22;5184;51.376;7.148;2022-09-09T11:20:14;20.10;18.60
10278;DHT22;5184;51.376;7.148;2022-09-09T11:22:48;20.00;1.00
10278;DHT22;5184;51.376;7.148;2022-09-09T11:25:15;20.00;1.00
10278;DHT22;5184;51.376;7.148;2022-09-09T11:27:54;20.10;1.00
10278;DHT22;5184;51.376;7.148;2022-09-09T11:30:22;19.70;22.20
10278;DHT22;5184;51.376;7.148;2022-09-09T11:33:26;19.70;21.50
10278;DHT22;5184;51.376;7.148;2022-09-09T11:36:27;19.70;99.90
10278;DHT22;5184;51.376;7.148;2022-09-09T11:38:51;19.70;99.90
10278;DHT22;5184;51.376;7.148;2022-09-09T11:41:17;19.70;33.00
10278;DHT22;5184;51.376;7.148;2022-09-09T11:43:44;19.70;24.70
10278;DHT22;5184;51.376;7.148;2022-09-09T11:46:12;19.40;99.90
10278;DHT22;5184;51.376;7.148;2022-09-09T11:48:42;19.20;99.90
10278;DHT22;5184;51.376;7.148;2022-09-09T11:51:08;19.20;99.90
10278;DHT22;5184;51.376;7.148;2022-09-09T11:53:36;19.10;99.90
10278;DHT22;5184;51.376;7.148;2022-09-09T11:56:08;19.20;99.90
10278;DHT22;5184;51.376;7.148;2022-09-09T11:58:41;19.20;99.90
10278;DHT22;5184;51.376;7.148;2022-09-09T12:01:13;19.30;99.90
10278;DHT22;5184;51.376;7.148;2022-09-09T12:03:42;19.10;1.00
10278;DHT22;5184;51.376;7.148;2022-09-09T12:06:10;18.60;99.90
10278;DHT22;5184;51.376;7.148;2022-09-09T12:08:35;18.30;1.00
10278;DHT22;5184;51.376;7.148;2022-09-09T12:11:02;18.20;34.60
10278;DHT22;5184;51.376;7.148;2022-09-09T12:13:29;18.10;1.00
10278;DHT22;5184;51.376;7.148;2022-09-09T12:15:57;18.10;1.00
10278;DHT22;5184;51.376;7.148;2022-09-09T12:23:43;18.60;99.90
10278;DHT22;5184;51.376;7.148;2022-09-09T12:26:32;18.80;1.00
10278;DHT22;5184;51.376;7.148;2022-09-09T12:29:08;18.80;1.00
10278;DHT22;5184;51.376;7.148;2022-09-09T12:32:09;18.70;1.00
10278;DHT22;5184;51.376;7.148;2022-09-09T12:34:39;18.60;11.70
10278;DHT22;5184;51.376;7.148;2022-09-09T12:37:12;18.50;1.00
10278;DHT22;5184;51.376;7.148;2022-09-09T12:39:39;18.50;1.00
10278;DHT22;5184;51.376;7.148;2022-09-09T12:42:04;18.40;58.70
10278;DHT22;5184;51.376;7.148;2022-09-09T12:44:31;18.30;1.00
10278;DHT22;5184;51.376;7.148;2022-09-09T12:46:59;18.20;99.90
10278;DHT22;5184;51.376;7.148;2022-09-09T12:49:26;17.90;99.90
10278;DHT22;5184;51.376;7.148;2022-09-09T12:51:51;17.60;99.90
10278;DHT22;5184;51.376;7.148;2022-09-09T12:54:18;17.60;99.90
10278;DHT22;5184;51.376;7.148;2022-09-09T12:56:46;17.80;1.00
10278;DHT22;5184;51.376;7.148;2022-09-09T12:59:37;17.90;1.00
10278;DHT22;5184;51.376;7.148;2022-09-09T13:02:02;17.90;1.00
10278;DHT22;5184;51.376;7.148;2022-09-09T13:04:28;18.10;1.00
10278;DHT22;5184;51.376;7.148;2022-09-09T13:07:05;18.30;99.90
10278;DHT22;5184;51.376;7.148;2022-09-09T13:09:22;18.40;1.00
10278;DHT22;5184;51.376;7.148;2022-09-09T13:11:50;18.50;99.90
10278;DHT22;5184;51.376;7.148;2022-09-09T13:14:16;18.60;99.90
10278;DHT22;5184;51.376;7.148;2022-09-09T13:16:42;18.60;1.00
10278;DHT22;5184;51.376;7.148;2022-09-09T13:19:13;18.60;99.90
10278;DHT22;5184;51.376;7.148;2022-09-09T13:21:38;18.70;99.90
10278;DHT22;5184;51.376;7.148;2022-09-09T13:24:06;18.70;99.90
10278;DHT22;5184;51.376;7.148;2022-09-09T13:26:31;18.70;99.90
10278;DHT22;5184;51.376;7.148;2022-09-09T13:29:09;18.60;99.90
10278;DHT22;5184;51.376;7.148;2022-09-09T13:31:36;18.60;1.00
10278;DHT22;5184;51.376;7.148;2022-09-09T13:34:10;18.40;99.90
10278;DHT22;5184;51.376;7.148;2022-09-09T13:36:29;18.20;99.90
10278;DHT22;5184;51.376;7.148;2022-09-09T13:38:55;17.50;1.00
10278;DHT22;5184;51.376;7.148;2022-09-09T13:41:22;17.50;1.00
10278;DHT22;5184;51.376;7.148;2022-09-09T13:43:48;17.00;1.00
10278;DHT22;5184;51.376;7.148;2022-09-09T13:46:37;16.70;1.00
10278;DHT22;5184;51.376;7.148;2022-09-09T13:51:45;16.90;99.90
10278;DHT22;5184;51.376;7.148;2022-09-09T13:54:11;17.10;99.70
10278;DHT22;5184;51.376;7.148;2022-09-09T13:56:38;17.40;99.90
10278;DHT22;5184;51.376;7.148;2022-09-09T13:59:06;17.60;99.90
10278;DHT22;5184;51.376;7.148;2022-09-09T14:01:31;17.70;1.00
10278;DHT22;5184;51.376;7.148;2022-09-09T14:03:58;17.70;99.90
10278;DHT22;5184;51.376;7.148;2022-09-09T14:06:24;17.80;99.90
10278;DHT22;5184;51.376;7.148;2022-09-09T14:08:51;18.00;1.00
10278;DHT22;5184;51.376;7.148;2022-09-09T14:11:18;18.10;99.90
10278;DHT22;5184;51.376;7.148;2022-09-09T14:13:45;18.00;99.90
10278;DHT22;5184;51.376;7.148;2022-09-09T14:16:11;18.00;99.90
10278;DHT22;5184;51.376;7.148;2022-09-09T14:18:38;18.00;1.00
10278;DHT22;5184;51.376;7.148;2022-09-09T14:21:05;18.10;99.90
10278;DHT22;5184;51.376;7.148;2022-09-09T14:23:31;18.20;99.90
10278;DHT22;5184;51.376;7.148;2022-09-09T14:25:58;18.20;99.90
10278;DHT22;5184;51.376;7.148;2022-09-09T14:28:24;18.20;1.00
10278;DHT22;5184;51.376;7.148;2022-09-09T14:30:51;18.20;1.00
10278;DHT22;5184;51.376;7.148;2022-09-09T14:33:18;18.10;99.90
10278;DHT22;5184;51.376;7.148;2022-09-09T14:35:44;18.00;1.00
10278;DHT22;5184;51.376;7.148;2022-09-09T14:38:11;17.90;1.00
10278;DHT22;5184;51.376;7.148;2022-09-09T14:40:37;17.80;99.90
10278;DHT22;5184;51.376;7.148;2022-09-09T14:43:04;17.60;1.00
10278;DHT22;5184;51.376;7.148;2022-09-09T14:45:31;17.60;1.00
10278;DHT22;5184;51.376;7.148;2022-09-09T14:47:57;17.70;24.10
10278;DHT22;5184;51.376;7.148;2022-09-09T14:50:25;18.50;99.90
10278;DHT22;5184;51.376;7.148;2022-09-09T14:52:51;18.50;99.90
10278;DHT22;5184;51.376;7.148;2022-09-09T14:55:18;18.70;1.00
10278;DHT22;5184;51.376;7.148;2022-09-09T14:57:45;19.20;99.90
10278;DHT22;5184;51.376;7.148;2022-09-09T15:00:11;19.10;1.00
10278;DHT22;5184;51.376;7.148;2022-09-09T15:02:39;18.40;99.90
10278;DHT22;5184;51.376;7.148;2022-09-09T15:05:05;18.50;99.90
10278;DHT22;5184;51.376;7.148;2022-09-09T15:07:32;18.20;99.90
10278;DHT22;5184;51.376;7.148;2022-09-09T15:09:59;18.00;99.90
10278;DHT22;5184;51.376;7.148;2022-09-09T15:12:25;17.80;1.00
10278;DHT22;5184;51.376;7.148;2022-09-09T15:14:52;17.50;99.90
10278;DHT22;5184;51.376;7.148;2022-09-09T15:17:19;17.10;1.00
10278;DHT22;5184;51.376;7.148;2022-09-09T15:19:45;16.90;1.00
10278;DHT22;5184;51.376;7.148;2022-09-09T15:22:12;16.60;99.90
10278;DHT22;5184;51.376;7.148;2022-09-09T15:24:39;16.30;1.00
10278;DHT22;5184;51.376;7.148;2022-09-09T15:27:06;16.00;1.00
10278;DHT22;5184;51.376;7.148;2022-09-09T15:29:32;15.50;99.90
10278;DHT22;5184;51.376;7.148;2022-09-09T15:31:59;15.50;99.90
10278;DHT22;5184;51.376;7.148;2022-09-09T15:34:25;15.30;99.90
10278;DHT22;5184;51.376;7.148;2022-09-09T15:36:52;15.20;99.90
10278;DHT22;5184;51.376;7.148;2022-09-09T15:39:19;15.20;99.90
10278;DHT22;5184;51.376;7.148;2022-09-09T15:41:46;15.10;1.00
10278;DHT22;5184;51.376;7.148;2022-09-09T15:44:14;15.10;1.00
10278;DHT22;5184;51.376;7.148;2022-09-09T15:46:45;15.10;1.00
10278;DHT22;5184;51.376;7.148;2022-09-09T15:49:13;15.10;1.00
10278;DHT22;5184;51.376;7.148;2022-09-09T15:51:41;15.10;1.00
10278;DHT22;5184;51.376;7.148;2022-09-09T15:54:07;15.20;1.00
10278;DHT22;5184;51.376;7.148;2022-09-09T15:56:33;15.20;1.00
10278;DHT22;5184;51.376;7.148;2022-09-09T15:59:00;15.40;1.00
10278;DHT22;5184;51.376;7.148;2022-09-09T16:01:27;15.50;1.00
10278;DHT22;5184;51.376;7.148;2022-09-09T16:03:53;15.60;1.00
10278;DHT22;5184;51.376;7.148;2022-09-09T16:06:21;15.60;1.00
10278;DHT22;5184;51.376;7.148;2022-09-09T16:08:50;15.70;99.90
10278;DHT22;5184;51.376;7.148;2022-09-09T16:11:18;15.70;99.90
10278;DHT22;5184;51.376;7.148;2022-09-09T16:13:44;15.60;1.00
10278;DHT22;5184;51.376;7.148;2022-09-09T16:16:11;15.60;99.90
10278;DHT22;5184;51.376;7.148;2022-09-09T16:18:38;15.60;1.00
10278;DHT22;5184;51.376;7.148;2022-09-09T16:21:04;15.60;1.00
10278;DHT22;5184;51.376;7.148;2022-09-09T16:23:31;15.60;1.00
10278;DHT22;5184;51.376;7.148;2022-09-09T16:25:57;15.60;1.00
10278;DHT22;5184;51.376;7.148;2022-09-09T16:28:24;15.60;99.90
10278;DHT22;5184;51.376;7.148;2022-09-09T16:30:51;15.50;1.00